Time;durP1;ratioP1;P1;durP2;ratioP2;P2;SDS_P1;SDS_P2;PMS_P1;PMS_P2;Temp;Humidity;BMP_temperature;BMP_pressure;BME280_temperature;BME280_humidity;BME280_pressure;Samples;Min_cycle;Max_cycle;Signal;HPM_P1;HPM_P2
2023/09/22 00:01:37;;;;;;;2.75;0.95;;;18.70;92.20;;;;;;7382102;19;20385;-77
2023/09/22 00:04:11;;;;;;;7.40;1.45;;;18.70;92.20;;;;;;7382621;19;19998;-78
2023/09/22 00:06:42;;;;;;;3.45;1.52;;;18.70;92.20;;;;;;7382925;19;20054;-77
2023/09/22 00:09:11;;;;;;;;;;;18.70;92.30;;;;;;7383459;19;20010;-77
2023/09/22 00:11:40;;;;;;;3.97;1.08;;;18.70;92.10;;;;;;7386507;19;19932;-77
2023/09/22 00:14:08;;;;;;;12.98;1.50;;;18.70;92.10;;;;;;7403523;19;20007;-77
2023/09/22 00:16:37;;;;;;;6.72;1.17;;;18.60;92.20;;;;;;7383450;19;20014;-77
2023/09/22 00:22:19;;;;;;;8.53;1.33;;;18.60;92.30;;;;;;7380720;19;19995;-77
2023/09/22 00:24:50;;;;;;;2.42;0.90;;;18.50;92.20;;;;;;7382415;19;20240;-77
2023/09/22 00:27:19;;;;;;;9.98;1.20;;;18.50;92.30;;;;;;7382362;19;20007;-77
2023/09/22 00:29:47;;;;;;;12.35;1.20;;;18.60;92.30;;;;;;7381716;19;20381;-77
2023/09/22 00:32:16;;;;;;;6.10;1.67;;;18.60;92.30;;;;;;7401198;19;20007;-77
2023/09/22 00:34:45;;;;;;;4.07;1.33;;;18.70;92.30;;;;;;7380628;19;20002;-77
2023/09/22 00:37:14;;;;;;;2.80;0.88;;;18.60;92.10;;;;;;7381789;19;20074;-77
2023/09/22 00:39:45;;;;;;;6.88;1.23;;;18.70;92.00;;;;;;7382572;19;20003;-76
2023/09/22 00:42:14;;;;;;;3.08;1.42;;;18.50;91.70;;;;;;7385251;19;20023;-78
2023/09/22 00:44:42;;;;;;;9.00;1.67;;;18.40;91.80;;;;;;7382505;19;20018;-77
2023/09/22 00:47:13;;;;;;;4.63;1.20;;;18.40;92.00;;;;;;7401482;19;20010;-77
2023/09/22 00:49:44;;;;;;;5.63;1.00;;;18.30;91.90;;;;;;7381100;19;20381;-77
2023/09/22 00:52:14;;;;;;;4.57;1.40;;;18.30;92.00;;;;;;7381490;19;19999;-77
2023/09/22 00:54:46;;;;;;;11.38;1.08;;;18.30;92.00;;;;;;7381263;19;20002;-77
2023/09/22 00:57:14;;;;;;;;;;;18.30;92.10;;;;;;7382185;19;20019;-77
2023/09/22 00:59:44;;;;;;;3.45;1.15;;;18.40;91.90;;;;;;7381530;19;19910;-77
2023/09/22 01:02:13;;;;;;;5.07;1.10;;;18.30;91.80;;;;;;7400848;19;20007;-76
2023/09/22 01:04:42;;;;;;;6.50;1.33;;;18.30;91.90;;;;;;7384947;19;20003;-77
2023/09/22 01:07:12;;;;;;;6.88;1.35;;;18.40;91.90;;;;;;7383033;19;20010;-77
2023/09/22 01:09:41;;;;;;;3.70;1.13;;;18.40;91.80;;;;;;7381096;19;20010;-76
2023/09/22 01:12:13;;;;;;;8.60;1.13;;;18.50;91.90;;;;;;7381467;19;20074;-77
2023/09/22 01:14:43;;;;;;;7.43;1.33;;;18.40;91.70;;;;;;7381369;19;20034;-77
2023/09/22 01:17:13;;;;;;;6.10;1.48;;;18.50;91.70;;;;;;7402554;19;20020;-77
2023/09/22 01:19:43;;;;;;;5.03;1.02;;;18.50;91.70;;;;;;7381293;19;20009;-77
2023/09/22 01:22:14;;;;;;;3.67;1.00;;;18.50;91.70;;;;;;7379122;19;20003;-77
2023/09/22 01:24:42;;;;;;;;;;;18.40;91.70;;;;;;7380219;19;20064;-77
2023/09/22 01:27:11;;;;;;;4.38;1.10;;;18.50;91.90;;;;;;7380165;19;19914;-77
2023/09/22 01:29:40;;;;;;;6.63;1.50;;;18.50;91.90;;;;;;7387261;19;20007;-78
2023/09/22 01:32:09;;;;;;;4.53;1.15;;;18.50;91.80;;;;;;7402875;19;20048;-78
2023/09/22 01:34:38;;;;;;;4.40;1.00;;;18.50;92.00;;;;;;7379257;19;21769;-77
2023/09/22 01:37:07;;;;;;;6.50;1.35;;;18.50;91.90;;;;;;7379688;19;20026;-77
2023/09/22 01:39:40;;;;;;;8.02;1.25;;;18.40;91.80;;;;;;7383109;19;20026;-78
2023/09/22 01:42:09;;;;;;;3.88;1.20;;;18.20;92.00;;;;;;7385830;19;19998;-77
2023/09/22 01:44:38;;;;;;;4.45;1.10;;;18.30;92.60;;;;;;7383998;19;20018;-76
2023/09/22 01:47:08;;;;;;;7.07;1.70;;;18.40;92.20;;;;;;7405986;19;20010;-77
2023/09/22 01:49:37;;;;;;;7.45;1.63;;;18.40;92.00;;;;;;7382217;19;20006;-76
2023/09/22 01:52:08;;;;;;;6.18;1.30;;;18.40;92.00;;;;;;7379702;19;20519;-77
2023/09/22 01:54:40;;;;;;;5.00;1.52;;;18.20;92.40;;;;;;7382198;19;20024;-76
2023/09/22 01:57:08;;;;;;;7.60;1.58;;;18.20;92.10;;;;;;7379803;19;20023;-76
2023/09/22 01:59:37;;;;;;;12.63;1.70;;;18.10;92.00;;;;;;7379871;19;20015;-77
2023/09/22 02:02:06;;;;;;;5.10;1.38;;;18.10;92.20;;;;;;7400909;19;20338;-78
2023/09/22 02:04:34;;;;;;;5.63;1.30;;;18.00;92.20;;;;;;7378524;19;20006;-77
2023/09/22 02:07:04;;;;;;;7.28;1.45;;;18.10;92.40;;;;;;7379359;19;20035;-77
2023/09/22 02:09:33;;;;;;;5.07;1.63;;;18.00;92.30;;;;;;7379244;19;20219;-77
2023/09/22 02:12:05;;;;;;;4.82;1.50;;;18.10;92.20;;;;;;7379238;19;20082;-76
2023/09/22 02:14:33;;;;;;;;;;;18.10;92.30;;;;;;7379843;19;20007;-76
2023/09/22 02:17:02;;;;;;;10.00;1.98;;;18.00;92.30;;;;;;7405427;19;19919;-78
2023/09/22 02:19:31;;;;;;;15.88;1.80;;;18.00;92.30;;;;;;7382279;19;20007;-76
2023/09/22 02:22:00;;;;;;;5.10;1.45;;;18.10;92.30;;;;;;7378418;19;20006;-77
2023/09/22 02:24:29;;;;;;;9.23;1.45;;;17.90;92.30;;;;;;7377913;19;20010;-76
2023/09/22 02:26:58;;;;;;;12.10;1.77;;;18.00;92.10;;;;;;7379220;19;20003;-77
2023/09/22 02:29:29;;;;;;;6.80;1.80;;;18.00;92.10;;;;;;7378119;19;20019;-77
2023/09/22 02:31:58;;;;;;;;;;;18.10;92.10;;;;;;7400178;19;20018;-76
2023/09/22 02:34:27;;;;;;;5.63;1.38;;;18.20;92.00;;;;;;7379467;19;19910;-77
2023/09/22 02:36:55;;;;;;;7.82;1.52;;;18.20;92.00;;;;;;7384542;19;20006;-77
2023/09/22 02:39:24;;;;;;;11.13;1.80;;;18.20;91.70;;;;;;7383851;19;20408;-76
2023/09/22 02:41:53;;;;;;;6.43;1.45;;;18.00;91.70;;;;;;7391528;19;20033;-76
2023/09/22 02:44:22;;;;;;;8.10;1.50;;;18.10;91.80;;;;;;7408873;19;20023;-77
2023/09/22 02:46:53;;;;;;;4.82;1.27;;;18.10;91.90;;;;;;7388068;19;20358;-76
2023/09/22 02:49:22;;;;;;;4.82;1.48;;;18.10;91.90;;;;;;7385764;19;20267;-77
2023/09/22 02:51:51;;;;;;;11.13;1.70;;;18.20;91.80;;;;;;7385573;19;20002;-77
2023/09/22 02:54:20;;;;;;;9.40;1.70;;;18.20;91.80;;;;;;7383628;19;20023;-77
2023/09/22 02:56:49;;;;;;;7.25;1.67;;;18.20;91.70;;;;;;7382807;19;20010;-77
2023/09/22 02:59:19;;;;;;;3.40;1.30;;;18.20;91.60;;;;;;7407062;19;20349;-77
2023/09/22 03:01:49;;;;;;;5.47;1.60;;;18.30;91.50;;;;;;7384174;19;20010;-77
2023/09/22 03:04:22;;;;;;;6.70;1.60;;;18.20;91.40;;;;;;7387155;19;20007;-77
2023/09/22 03:06:51;;;;;;;10.70;1.40;;;18.20;91.50;;;;;;7389641;19;20007;-77
2023/09/22 03:09:20;;;;;;;9.98;1.95;;;18.10;91.50;;;;;;7384886;19;20010;-77
2023/09/22 03:11:48;;;;;;;12.30;2.03;;;18.00;91.60;;;;;;7388168;19;20145;-77
2023/09/22 03:14:17;;;;;;;19.85;1.80;;;18.10;91.70;;;;;;7405165;19;20024;-76
2023/09/22 03:16:46;;;;;;;9.32;1.80;;;18.10;91.70;;;;;;7381715;19;20361;-76
2023/09/22 03:19:15;;;;;;;7.65;1.48;;;18.10;91.80;;;;;;7384614;19;20023;-77
2023/09/22 03:21:46;;;;;;;4.38;1.38;;;18.00;91.70;;;;;;7382976;19;20006;-76
2023/09/22 03:24:15;;;;;;;4.72;1.50;;;18.10;91.80;;;;;;7383510;19;20011;-76
2023/09/22 03:26:44;;;;;;;7.78;1.45;;;18.10;91.80;;;;;;7385360;19;20087;-76
2023/09/22 03:29:12;;;;;;;8.57;1.73;;;18.10;91.70;;;;;;7407666;19;20007;-76
2023/09/22 03:31:41;;;;;;;13.25;2.10;;;18.10;91.80;;;;;;7384005;19;20010;-76
2023/09/22 03:34:10;;;;;;;8.38;2.10;;;18.00;91.70;;;;;;7383828;19;20033;-76
2023/09/22 03:36:41;;;;;;;9.95;2.10;;;18.00;91.70;;;;;;7383667;19;20063;-76
2023/09/22 03:39:13;;;;;;;11.82;2.08;;;17.90;91.90;;;;;;7383586;19;20405;-76
2023/09/22 03:41:42;;;;;;;7.45;2.05;;;18.00;91.90;;;;;;7383778;19;20018;-76
2023/09/22 03:44:11;;;;;;;15.00;2.00;;;18.00;91.80;;;;;;7405655;19;20023;-77
2023/09/22 03:46:40;;;;;;;8.25;2.05;;;18.10;91.70;;;;;;7381626;19;20007;-77
2023/09/22 03:49:09;;;;;;;16.02;2.45;;;18.10;91.80;;;;;;7388730;19;20024;-77
2023/09/22 03:51:38;;;;;;;9.25;2.30;;;18.10;91.80;;;;;;7389194;19;20007;-76
2023/09/22 03:54:08;;;;;;;11.48;2.30;;;18.20;92.00;;;;;;7390182;19;20007;-77
2023/09/22 03:56:40;;;;;;;11.07;2.72;;;18.20;91.80;;;;;;7386560;19;20018;-76
2023/09/22 03:59:11;;;;;;;8.77;2.22;;;18.20;91.80;;;;;;7402368;19;20007;-76
2023/09/22 04:01:40;;;;;;;8.13;2.13;;;18.20;91.80;;;;;;7382551;19;20003;-76
2023/09/22 04:04:09;;;;;;;11.63;2.70;;;18.20;91.90;;;;;;7383116;19;20003;-76
2023/09/22 04:06:38;;;;;;;13.20;2.47;;;18.20;91.80;;;;;;7382819;19;19999;-78
2023/09/22 04:09:07;;;;;;;9.25;2.42;;;18.10;91.90;;;;;;7382393;19;20007;-76
2023/09/22 04:11:36;;;;;;;11.93;2.97;;;18.10;92.00;;;;;;7386423;19;20070;-76
2023/09/22 04:14:08;;;;;;;9.77;2.53;;;18.10;92.00;;;;;;7403839;19;20410;-76
2023/09/22 04:16:37;;;;;;;14.95;2.83;;;18.10;91.90;;;;;;7381368;19;20465;-76
2023/09/22 04:19:09;;;;;;;13.38;3.20;;;18.20;92.00;;;;;;7382776;19;19999;-76
2023/09/22 04:21:42;;;;;;;8.57;3.05;;;18.10;91.90;;;;;;7383045;19;20689;-76
2023/09/22 04:24:12;;;;;;;11.65;3.28;;;18.10;92.00;;;;;;7381325;19;20025;-77
2023/09/22 04:26:42;;;;;;;9.20;3.00;;;18.10;92.00;;;;;;7382569;19;20050;-77
2023/09/22 04:29:14;;;;;;;15.05;2.92;;;18.10;92.00;;;;;;7403680;19;20487;-76
2023/09/22 04:31:43;;;;;;;8.70;3.28;;;18.10;92.00;;;;;;7381316;19;20016;-77
2023/09/22 04:34:12;;;;;;;17.70;2.85;;;18.10;91.80;;;;;;7381396;19;20029;-77
2023/09/22 04:36:41;;;;;;;9.77;2.97;;;18.20;91.80;;;;;;7381746;19;20002;-77
2023/09/22 04:39:10;;;;;;;12.25;3.22;;;18.20;91.80;;;;;;7383103;19;20006;-76
2023/09/22 04:41:40;;;;;;;9.95;2.75;;;18.20;91.70;;;;;;7382177;19;20011;-77
2023/09/22 04:44:09;;;;;;;9.82;2.67;;;17.90;91.50;;;;;;7403150;19;20013;-76
2023/09/22 04:46:41;;;;;;;11.73;2.65;;;17.90;91.70;;;;;;7380950;19;20007;-76
2023/09/22 04:49:11;;;;;;;9.05;2.67;;;17.90;91.70;;;;;;7381618;19;20007;-76
2023/09/22 04:51:40;;;;;;;15.02;2.90;;;17.90;91.90;;;;;;7381711;19;20372;-76
2023/09/22 04:54:09;;;;;;;12.27;2.35;;;17.90;92.30;;;;;;7381029;19;20034;-75
2023/09/22 04:56:38;;;;;;;9.35;2.40;;;17.90;91.90;;;;;;7378847;19;20023;-76
2023/09/22 04:59:07;;;;;;;9.82;2.40;;;17.90;91.90;;;;;;7402326;19;20042;-76
2023/09/22 05:01:35;;;;;;;10.98;2.53;;;17.90;92.00;;;;;;7380456;19;20007;-77
2023/09/22 05:04:08;;;;;;;12.98;2.22;;;18.00;92.10;;;;;;7384115;19;20111;-77
2023/09/22 05:06:37;;;;;;;6.55;2.30;;;18.00;92.10;;;;;;7382364;19;19998;-77
2023/09/22 05:09:07;;;;;;;15.70;2.50;;;18.10;92.10;;;;;;7379517;19;20019;-76
2023/09/22 05:11:35;;;;;;;10.85;2.35;;;18.10;92.10;;;;;;7385221;19;20002;-77
2023/09/22 05:14:05;;;;;;;8.63;1.80;;;18.10;92.00;;;;;;7401835;19;20028;-77
2023/09/22 05:16:34;;;;;;;14.55;1.92;;;18.10;92.00;;;;;;7379515;19;20434;-76
2023/09/22 05:19:02;;;;;;;17.90;2.47;;;18.10;92.00;;;;;;7380698;19;20098;-76
2023/09/22 05:21:34;;;;;;;9.32;2.05;;;18.00;92.00;;;;;;7380678;19;20015;-77
2023/09/22 05:24:04;;;;;;;10.55;2.13;;;18.10;92.00;;;;;;7380075;19;19999;-76
2023/09/22 05:26:34;;;;;;;11.07;2.40;;;18.10;92.10;;;;;;7380590;19;20023;-75
2023/09/22 05:29:06;;;;;;;21.00;2.10;;;18.10;92.10;;;;;;7404095;19;20038;-76
2023/09/22 05:31:36;;;;;;;7.05;2.00;;;18.20;92.20;;;;;;7379975;19;20010;-78
2023/09/22 05:34:05;;;;;;;7.85;2.05;;;18.20;92.00;;;;;;7380316;19;20514;-77
2023/09/22 05:36:36;;;;;;;10.75;2.40;;;18.20;92.00;;;;;;7379140;19;20019;-77
2023/09/22 05:39:10;;;;;;;16.20;2.95;;;18.20;92.10;;;;;;7380118;19;20007;-77
2023/09/22 05:41:39;;;;;;;18.67;2.63;;;18.20;92.00;;;;;;7380875;19;20079;-77
2023/09/22 05:44:08;;;;;;;9.57;2.63;;;18.20;92.00;;;;;;7399297;19;20028;-77
2023/09/22 05:46:37;;;;;;;10.50;2.30;;;18.20;92.10;;;;;;7379018;19;20074;-75
2023/09/22 05:49:06;;;;;;;9.88;2.53;;;18.20;92.10;;;;;;7379667;19;20026;-75
2023/09/22 05:51:38;;;;;;;13.75;2.40;;;18.20;92.30;;;;;;7380466;19;20262;-75
2023/09/22 05:54:07;;;;;;;10.27;2.22;;;18.20;92.40;;;;;;7383369;19;20110;-76
2023/09/22 05:56:36;;;;;;;15.75;1.77;;;18.20;92.30;;;;;;7387329;19;19999;-76
2023/09/22 05:59:06;;;;;;;14.07;2.72;;;18.20;92.40;;;;;;7406291;19;20007;-77
2023/09/22 06:01:37;;;;;;;15.63;2.25;;;18.20;92.40;;;;;;7386950;19;20036;-76
2023/09/22 06:04:09;;;;;;;12.80;2.47;;;18.20;92.50;;;;;;7386737;19;20021;-77
2023/09/22 06:06:42;;;;;;;6.20;2.00;;;18.30;92.50;;;;;;7379857;19;20119;-76
2023/09/22 06:09:12;;;;;;;16.85;2.80;;;18.20;92.50;;;;;;7378942;19;20003;-77
2023/09/22 06:11:41;;;;;;;10.85;2.38;;;18.30;92.70;;;;;;7382788;19;20011;-76
2023/09/22 06:14:12;;;;;;;10.50;2.17;;;18.20;93.10;;;;;;7400183;19;20006;-77
2023/09/22 06:16:41;;;;;;;10.80;2.40;;;18.20;93.40;;;;;;7383662;19;20028;-77
2023/09/22 06:19:10;;;;;;;4.47;1.80;;;18.10;93.50;;;;;;7379757;19;19999;-77
2023/09/22 06:21:41;;;;;;;8.82;2.00;;;18.10;93.50;;;;;;7380172;19;20066;-77
2023/09/22 06:24:11;;;;;;;14.65;2.17;;;18.10;93.60;;;;;;7378406;19;20011;-76
2023/09/22 06:26:40;;;;;;;14.32;2.13;;;18.10;93.70;;;;;;7378568;19;20011;-78
2023/09/22 06:29:09;;;;;;;9.80;2.00;;;18.10;93.70;;;;;;7402005;19;20011;-77
2023/09/22 06:31:38;;;;;;;10.18;1.50;;;18.10;93.70;;;;;;7377692;19;20385;-77
2023/09/22 06:34:07;;;;;;;12.52;2.00;;;18.10;94.10;;;;;;7377578;19;20002;-77
2023/09/22 06:36:36;;;;;;;5.22;1.83;;;18.10;93.70;;;;;;7377835;19;20009;-77
2023/09/22 06:39:08;;;;;;;12.93;2.15;;;18.20;93.70;;;;;;7378599;19;20011;-77
2023/09/22 06:41:37;;;;;;;;;;;18.20;93.80;;;;;;7380245;19;20019;-77
2023/09/22 06:44:06;;;;;;;12.55;2.15;;;18.20;93.80;;;;;;7399475;19;19920;-77
2023/09/22 06:46:35;;;;;;;4.40;1.98;;;18.30;93.70;;;;;;7377131;19;19999;-77
2023/09/22 06:49:07;;;;;;;10.32;2.42;;;18.20;93.80;;;;;;7379004;19;20011;-79
2023/09/22 06:51:54;;;;;;;11.88;2.47;;;18.20;93.80;;;;;;7381427;19;20033;-83
2023/09/22 06:57:57;;;;;;;26.58;11.35;;;18.20;93.90;;;;;;7384405;19;20003;-79
2023/09/22 07:00:32;;;;;;;10.75;3.17;;;18.20;94.10;;;;;;7382589;19;20369;-79
2023/09/22 07:03:01;;;;;;;20.65;2.67;;;18.20;94.40;;;;;;7384775;19;20281;-78
2023/09/22 07:05:30;;;;;;;7.43;2.20;;;18.20;94.70;;;;;;7380754;19;20010;-74
2023/09/22 07:08:03;;;;;;;10.60;2.70;;;18.20;94.80;;;;;;7404065;19;20018;-77
2023/09/22 07:10:35;;;;;;;10.88;2.20;;;18.30;94.90;;;;;;7376694;19;20093;-74
2023/09/22 07:13:06;;;;;;;12.40;2.38;;;18.20;95.00;;;;;;7376749;19;20256;-77
2023/09/22 07:15:35;;;;;;;10.80;2.08;;;18.20;95.00;;;;;;7377268;19;20033;-77
2023/09/22 07:18:05;;;;;;;15.30;2.35;;;18.30;94.90;;;;;;7377682;19;20564;-77
2023/09/22 07:20:37;;;;;;;8.77;1.80;;;18.30;94.90;;;;;;7380278;19;20003;-76
2023/09/22 07:23:06;;;;;;;5.63;1.58;;;18.20;95.20;;;;;;7402889;19;20011;-78
2023/09/22 07:25:35;;;;;;;13.80;2.08;;;18.10;94.70;;;;;;7383753;19;20384;-77
2023/09/22 07:28:07;;;;;;;9.85;2.08;;;18.20;94.80;;;;;;7385454;19;20030;-77
2023/09/22 07:30:42;;;;;;;13.55;2.00;;;18.20;94.80;;;;;;7387179;19;20234;-80
2023/09/22 07:33:12;;;;;;;9.82;2.22;;;18.20;95.00;;;;;;7386022;19;20240;-78
2023/09/22 07:35:42;;;;;;;15.25;2.17;;;18.10;94.70;;;;;;7387026;19;20042;-79
2023/09/22 07:38:10;;;;;;;9.80;1.77;;;18.10;94.80;;;;;;7405830;19;20011;-79
2023/09/22 07:40:39;;;;;;;18.33;2.22;;;18.00;94.70;;;;;;7386415;19;20368;-79
2023/09/22 07:43:10;;;;;;;8.35;2.10;;;18.00;94.90;;;;;;7387175;19;20020;-80
2023/09/22 07:45:39;;;;;;;;;;;18.10;95.20;;;;;;7388065;19;20052;-79
2023/09/22 07:48:08;;;;;;;11.15;2.05;;;18.10;95.30;;;;;;7386352;19;19915;-79
2023/09/22 07:50:39;;;;;;;14.80;1.95;;;18.10;95.30;;;;;;7385235;19;20006;-77
2023/09/22 07:53:08;;;;;;;9.47;2.00;;;18.00;95.20;;;;;;7411342;19;20054;-77
2023/09/22 07:55:38;;;;;;;12.65;2.25;;;18.10;95.30;;;;;;7384248;19;20006;-77
2023/09/22 07:58:10;;;;;;;11.07;2.45;;;18.10;95.30;;;;;;7383820;19;20013;-78
2023/09/22 08:00:42;;;;;;;5.90;1.60;;;18.10;95.40;;;;;;7384096;19;20239;-78
2023/09/22 08:03:11;;;;;;;9.93;2.20;;;18.00;95.30;;;;;;7389220;19;20013;-77
2023/09/22 08:05:41;;;;;;;8.10;2.22;;;18.00;95.60;;;;;;7401436;19;20007;-77
2023/09/22 08:08:10;;;;;;;10.82;2.15;;;18.00;95.80;;;;;;7424588;19;20044;-76
2023/09/22 08:10:40;;;;;;;10.80;2.03;;;17.90;95.70;;;;;;7390277;19;20056;-77
2023/09/22 08:13:11;;;;;;;14.02;2.35;;;17.80;95.90;;;;;;7391871;19;20010;-77
2023/09/22 08:15:42;;;;;;;;;;;17.90;95.90;;;;;;7388629;19;20103;-77
2023/09/22 08:18:13;;;;;;;7.10;1.90;;;18.00;95.80;;;;;;7384416;19;19914;-83
2023/09/22 08:29:56;;;;;;;5.78;1.40;;;17.60;96.10;;;;;;7387851;19;20018;-81
2023/09/22 08:35:20;;;;;;;5.72;1.60;;;17.90;96.90;;;;;;7361518;19;19907;-79
2023/09/22 08:37:50;;;;;;;14.90;2.03;;;17.60;96.20;;;;;;7403248;19;20027;-78
2023/09/22 08:44:04;;;;;;;9.50;1.40;;;17.80;96.80;;;;;;7407127;19;19982;-85
2023/09/22 08:56:10;;;;;;;8.88;1.35;;;17.30;96.90;;;;;;7405992;19;19979;-80
2023/09/22 08:58:39;;;;;;;5.30;1.20;;;17.70;96.80;;;;;;7380259;19;20059;-78
2023/09/22 09:01:07;;;;;;;7.55;1.27;;;17.60;96.50;;;;;;7382592;19;20384;-78
2023/09/22 09:06:47;;;;;;;3.08;0.63;;;17.40;96.90;;;;;;7410986;19;20473;-78
2023/09/22 09:12:28;;;;;;;0.90;0.50;;;17.40;96.80;;;;;;7380546;19;20010;-79
2023/09/22 09:15:00;;;;;;;1.17;0.63;;;17.10;96.30;;;;;;7380977;19;20346;-79
2023/09/22 09:17:38;;;;;;;1.45;0.63;;;17.00;96.60;;;;;;7380436;19;20075;-83
2023/09/22 09:26:56;;;;;;;1.20;0.40;;;17.20;96.80;;;;;;7411388;19;20220;-83
2023/09/22 09:48:30;;;;;;;0.40;0.30;;;16.80;95.60;;;;;;7296508;19;2004598;-84
2023/09/22 09:51:36;;;;;;;0.52;0.28;;;16.90;96.20;;;;;;7382362;19;20011;-81
2023/09/22 09:54:37;;;;;;;0.65;0.25;;;17.10;95.60;;;;;;7386548;19;20078;-80
2023/09/22 09:57:44;;;;;;;79.80;40.53;;;17.10;95.10;;;;;;7378321;19;20014;-84
2023/09/22 10:00:19;;;;;;;17.13;9.65;;;17.00;95.50;;;;;;7382485;19;20049;-81
2023/09/22 10:02:49;;;;;;;2.35;1.70;;;16.70;95.00;;;;;;7382523;19;20011;-80
2023/09/22 10:05:19;;;;;;;1.92;0.80;;;17.00;95.50;;;;;;7402364;19;20013;-80
2023/09/22 10:07:56;;;;;;;2.58;1.52;;;16.70;94.30;;;;;;7383284;19;20010;-80
2023/09/22 10:10:41;;;;;;;;;;;;;;;;;;;;;
2023/09/22 10:13:10;;;;;;;2.75;1.17;;;16.50;94.30;;;;;;7379723;19;20007;-80
2023/09/22 10:15:56;;;;;;;1.38;0.65;;;16.50;94.80;;;;;;7382290;19;20028;-79
2023/09/22 10:18:45;;;;;;;0.70;0.50;;;16.90;95.10;;;;;;7416745;19;20251;-79
2023/09/22 10:21:38;;;;;;;1.80;0.63;;;16.90;94.40;;;;;;7385595;19;20007;-77
2023/09/22 10:24:23;;;;;;;1.77;0.40;;;17.00;93.80;;;;;;7388347;19;20002;-78
2023/09/22 10:27:11;;;;;;;0.80;0.63;;;17.20;93.70;;;;;;7388117;19;20074;-79
2023/09/22 10:29:45;;;;;;;0.73;0.70;;;17.20;93.70;;;;;;7380890;19;20007;-77
2023/09/22 10:32:26;;;;;;;3.88;0.60;;;16.90;93.90;;;;;;7402690;19;20028;-79
2023/09/22 10:34:56;;;;;;;0.70;0.70;;;16.70;94.80;;;;;;7379649;19;20382;-78
2023/09/22 10:37:28;;;;;;;1.75;1.05;;;16.70;95.60;;;;;;7382389;19;20011;-78
2023/09/22 10:40:11;;;;;;;1.58;1.00;;;16.90;95.20;;;;;;7383291;19;20006;-79
2023/09/22 10:42:46;;;;;;;2.55;0.90;;;16.90;95.30;;;;;;7386224;19;20014;-79
2023/09/22 10:45:17;;;;;;;4.13;0.60;;;17.20;95.10;;;;;;7382529;19;20007;-78
2023/09/22 10:47:48;;;;;;;1.85;0.95;;;17.10;94.80;;;;;;7382747;19;19996;-78
2023/09/22 10:50:21;;;;;;;2.25;1.13;;;17.10;93.90;;;;;;7404147;19;20062;-79
2023/09/22 10:52:56;;;;;;;1.88;0.93;;;17.40;94.10;;;;;;7382870;19;20091;-76
2023/09/22 10:55:38;;;;;;;2.40;1.00;;;17.30;93.60;;;;;;7382584;19;20007;-77
2023/09/22 10:58:08;;;;;;;1.27;0.90;;;17.20;93.10;;;;;;7384919;19;20007;-77
2023/09/22 11:01:08;;;;;;;0.93;0.82;;;17.50;93.20;;;;;;7387477;19;19999;-80
2023/09/22 11:04:18;;;;;;;12.32;6.30;;;17.40;92.90;;;;;;7392207;19;20007;-80
2023/09/22 11:09:36;;;;;;;8.13;2.63;;;17.70;92.00;;;;;;7384292;19;20111;-80
2023/09/22 11:12:08;;;;;;;2.60;1.58;;;17.50;92.00;;;;;;7386293;19;20007;-78
2023/09/22 11:14:37;;;;;;;1.27;0.95;;;17.20;91.70;;;;;;7381777;19;20098;-77
2023/09/22 11:17:06;;;;;;;4.55;1.00;;;17.00;91.90;;;;;;7405931;19;20011;-80
2023/09/22 11:19:35;;;;;;;1.35;0.85;;;16.80;92.50;;;;;;7384397;19;20007;-80
2023/09/22 11:22:08;;;;;;;1.10;0.75;;;17.00;92.90;;;;;;7389622;19;20031;-79
2023/09/22 11:24:42;;;;;;;1.75;0.90;;;17.00;92.50;;;;;;7385312;19;20007;-82
2023/09/22 11:27:29;;;;;;;0.77;0.60;;;17.20;92.30;;;;;;7368150;19;20006;-83
2023/09/22 11:30:13;;;;;;;0.73;0.65;;;17.20;92.00;;;;;;7408934;19;20252;-77
2023/09/22 11:32:43;;;;;;;1.67;0.80;;;17.20;91.50;;;;;;7384220;19;20019;-79
2023/09/22 11:35:27;;;;;;;4.78;0.60;;;17.30;92.30;;;;;;7403643;19;20010;-82
2023/09/22 11:41:11;;;;;;;0.70;0.50;;;17.40;91.30;;;;;;7407637;19;20350;-81
2023/09/22 11:46:53;;;;;;;0.77;0.60;;;17.20;90.40;;;;;;7412034;19;20050;-78
2023/09/22 11:49:21;;;;;;;;;;;17.20;90.80;;;;;;7385927;19;20006;-77
2023/09/22 11:51:57;;;;;;;2.35;0.70;;;17.40;90.80;;;;;;7386426;19;19907;-76
2023/09/22 11:57:37;;;;;;;1.38;0.40;;;17.60;90.70;;;;;;7385324;19;20015;-80
2023/09/22 12:00:13;;;;;;;4.03;0.80;;;17.80;90.70;;;;;;7387258;19;20253;-79
2023/09/22 12:02:46;;;;;;;2.22;0.38;;;17.70;90.70;;;;;;7386104;19;20014;-82
2023/09/22 12:05:15;;;;;;;0.75;0.45;;;17.70;90.40;;;;;;7407836;19;20015;-80
2023/09/22 12:07:43;;;;;;;0.82;0.60;;;17.80;91.30;;;;;;7383965;19;20006;-80
2023/09/22 12:10:12;;;;;;;1.70;0.57;;;17.80;91.30;;;;;;7384548;19;20007;-80
2023/09/22 12:12:41;;;;;;;1.45;0.63;;;17.90;91.60;;;;;;7381800;19;20031;-79
2023/09/22 12:15:11;;;;;;;1.58;0.68;;;17.90;91.80;;;;;;7406179;19;20027;-78
2023/09/22 12:17:40;;;;;;;2.13;0.80;;;17.70;92.30;;;;;;7382610;19;20006;-76
2023/09/22 12:20:14;;;;;;;0.63;0.47;;;17.70;92.20;;;;;;7407641;19;20019;-78
2023/09/22 12:22:44;;;;;;;0.90;0.68;;;17.80;92.60;;;;;;7384854;19;20038;-78
2023/09/22 12:25:13;;;;;;;1.08;0.65;;;17.70;91.70;;;;;;7388109;19;20014;-79
2023/09/22 12:27:46;;;;;;;0.93;0.52;;;17.70;91.20;;;;;;7407302;19;20014;-82
2023/09/22 12:33:40;;;;;;;2.20;0.73;;;17.80;91.60;;;;;;7357762;19;20042;-79
2023/09/22 12:36:13;;;;;;;1.90;0.55;;;17.50;91.00;;;;;;7405362;19;20002;-80
2023/09/22 12:38:42;;;;;;;1.85;0.70;;;17.70;91.50;;;;;;7386818;19;20006;-79
2023/09/22 12:41:14;;;;;;;1.48;0.50;;;17.80;91.10;;;;;;7404654;19;19998;-80
2023/09/22 12:46:25;;;;;;;2.97;0.80;;;18.10;91.00;;;;;;7382790;19;20030;-77
2023/09/22 12:55:22;;;;;;;1.02;0.55;;;18.00;89.60;;;;;;7351000;19;19999;-80
2023/09/22 13:04:13;;;;;;;0.47;0.47;;;17.50;90.50;;;;;;7386280;19;20029;-81
2023/09/22 13:06:42;;;;;;;1.25;0.80;;;17.50;90.70;;;;;;7403428;19;20006;-79
2023/09/22 13:09:11;;;;;;;1.13;0.60;;;17.60;90.60;;;;;;7385425;19;20016;-78
2023/09/22 13:11:46;;;;;;;2.35;0.50;;;17.60;90.30;;;;;;7382519;19;20007;-83
2023/09/22 13:17:36;;;;;;;0.53;0.50;;;17.60;88.70;;;;;;7403490;19;20357;-82
2023/09/22 13:23:17;;;;;;;0.47;0.30;;;17.80;87.80;;;;;;7405225;19;20338;-78
2023/09/22 13:25:50;;;;;;;4.40;0.47;;;17.80;88.20;;;;;;7384343;19;20024;-81
2023/09/22 13:47:02;;;;;;;1.70;0.30;;;18.50;87.60;;;;;;7406679;19;20291;-83
2023/09/22 14:42:46;;;;;;;1.00;0.60;;;19.40;82.50;;;;;;7312016;19;20014;-78
2023/09/22 14:45:16;;;;;;;3.17;0.70;;;19.40;81.30;;;;;;7406199;19;20006;-77
2023/09/22 14:47:48;;;;;;;6.45;1.00;;;19.40;82.00;;;;;;7397646;19;20380;-79
2023/09/22 14:53:30;;;;;;;3.05;0.93;;;19.50;81.40;;;;;;7414755;19;19999;-83
2023/09/22 14:56:00;;;;;;;;;;;19.50;80.80;;;;;;7388636;19;20110;-82
2023/09/22 14:58:33;;;;;;;4.82;0.50;;;19.50;80.00;;;;;;7409421;19;19906;-82
2023/09/22 15:01:08;;;;;;;2.88;0.70;;;19.60;78.80;;;;;;7390362;19;20354;-83
2023/09/22 15:03:40;;;;;;;3.88;0.90;;;19.50;78.30;;;;;;7389349;19;20002;-81
2023/09/22 15:06:09;;;;;;;3.42;0.90;;;19.50;78.30;;;;;;7386794;19;20081;-82
2023/09/22 15:08:38;;;;;;;1.88;0.82;;;19.50;78.60;;;;;;7388042;19;20003;-78
2023/09/22 15:11:06;;;;;;;5.55;0.70;;;19.50;78.50;;;;;;7404211;19;20030;-76
2023/09/22 15:13:55;;;;;;;3.25;0.50;;;19.50;77.80;;;;;;7390880;19;20002;-85
2023/09/22 15:16:23;;;;;;;3.05;0.80;;;19.30;78.60;;;;;;7387293;19;20075;-79
2023/09/22 15:18:52;;;;;;;1.80;0.63;;;19.40;79.30;;;;;;7384886;19;20010;-79
2023/09/22 15:30:45;;;;;;;2.03;0.90;;;20.00;78.90;;;;;;7322633;19;20011;-86
2023/09/22 15:36:25;;;;;;;2.33;0.80;;;20.20;78.50;;;;;;7386319;19;19995;-77
2023/09/22 15:38:56;;;;;;;6.60;0.88;;;20.20;77.60;;;;;;7383637;19;20003;-82
2023/09/22 15:41:33;;;;;;;2.43;0.90;;;20.30;77.80;;;;;;7408368;19;20034;-83
2023/09/22 15:44:38;;;;;;;5.80;1.00;;;20.30;78.60;;;;;;7386688;19;20003;-81
2023/09/22 16:03:03;;;;;;;3.70;1.33;;;20.20;77.90;;;;;;7405871;19;20015;-84
2023/09/22 17:21:32;;;;;;;2.92;1.10;;;19.20;81.90;;;;;;7406901;19;20002;-83
2023/09/22 17:24:03;;;;;;;5.65;1.33;;;19.20;82.10;;;;;;7384228;19;20010;-77
2023/09/22 17:26:32;;;;;;;3.20;0.90;;;19.20;82.20;;;;;;7388001;19;20357;-77
2023/09/22 17:29:03;;;;;;;4.95;1.75;;;19.20;82.40;;;;;;7405480;19;20033;-79
2023/09/22 17:31:40;;;;;;;3.42;1.20;;;19.10;82.20;;;;;;7382010;19;20007;-78
2023/09/22 17:34:53;;;;;;;4.25;1.02;;;19.10;81.90;;;;;;7382596;19;20054;-81
2023/09/22 17:37:44;;;;;;;2.72;1.08;;;19.00;81.60;;;;;;7383187;19;20020;-82
2023/09/22 17:40:14;;;;;;;4.50;1.33;;;18.90;81.10;;;;;;7379402;19;20003;-78
2023/09/22 17:42:50;;;;;;;3.13;0.90;;;18.90;81.00;;;;;;7378564;19;20023;-85
2023/09/22 17:51:53;;;;;;;2.13;1.10;;;18.70;82.00;;;;;;7381536;19;20369;-77
2023/09/22 18:01:51;;;;;;;5.20;1.20;;;18.40;85.30;;;;;;7417074;19;20365;-80
2023/09/22 18:04:19;;;;;;;2.60;1.15;;;18.30;86.60;;;;;;7416502;19;20011;-75
2023/09/22 18:06:48;;;;;;;4.85;1.35;;;18.20;86.70;;;;;;7415534;19;20011;-79